Aérodrome :
LOGIN :

S'inscrire | Disclaimer

   EN    FR    IT 

 










Légende :    VFR   VFR Marginal   IFR   IFR Intensif   IFR Très Intensif
Visi : 
Plafond : 
>= 8 km
>= 3000ft
5 à 8 km
1000 à 3000 ft
1500m à 5 km
500 à 1000 ft
800 à 1500m
200 à 500 ft
< 800m
< 200 ft
Symboles :   Orages  Brouillard  Fortes neiges  Fortes précipitations  Vent > 20 kt
SIGMETs :   Divers  Orages  Givrage  Turbulence  Onde Orograph.  Cendres Volcan.






- Altitude de l'aérodrome : 302 ft
- Code IATA : MAH


LEMH - Menorca

DERNIER METAR :
  • 120030Z AUTO 01033G46KT 9999 FEW023/// 14/03 Q1008

METARs EXPIRÉS :
  • 120000Z AUTO 36027G39KT 9999 FEW021/// SCT025/// 14/06 Q1008
  • 112330Z AUTO 36029G45KT 9999 -SHRA FEW023/// SCT027/// BKN030/// ///TCU 14/07 Q1008
  • 112300Z AUTO 36025G36KT 330V030 9999 FEW031/// SCT035/// 14/09 Q1008
  • 112230Z AUTO 36026G37KT 9999 FEW031/// SCT035/// BKN042/// 14/08 Q1008
  • 112200Z AUTO 36022G34KT 9999 FEW035/// SCT041/// 14/07 Q1008

TAF AMD TAF LEMH
Valide du 11 à 21h jusqu'au 12 à 21h UTC


112133Z 1121/1221 36020KT 9999 SCT030 TX16/1212Z TN10/1206Z
TEMPO 1121/1213 36025G35KT
BECMG 1213/1215 30010KT



MET'MAP, la Météo Aéronautique d'un coup d'oeil ! - Copyright ORBIFLY Décembre 2007 - Disclaimer

ORBIFLY MET'MAP TEAM :

Programmation & Développement : Alexandra Zaïnal
Conception & Développement : Baudouin d'Aumeries
Co-Programmation & Développement : Marc-Olivier Méhu
Soutien technique & logistique : Manuel Goepfert

Contact : metmap@orbifly.com




SOURCES & CREDITS :

   NOAA